< < Back
Terminal Aerodrome Forecast


Current Version              Previous Versions:   1  2  3  4  5  6  7  8  9  

Terminal Aerodrome Forecast

659
FTUS42 KGSP 230532
TAFAND
TAF
KAND 230532Z 2306/2406 00000KT P6SM SKC
     FM231900 27003KT P6SM SKC
     FM232300 00000KT P6SM FEW250=



Latest METAR

476
SAUS70 KWBC 230900 RRG
MTRAND
METAR KAND 230856Z AUTO 00000KT 10SM CLR 04/03 A3010 RMK AO2 SLP190
T00390028 55003


USA.gov is the U.S. government's official web portal to all federal, state and local government web resources and services.